KCMH/CMH METAR and TAF weather

Enter ICAO airport designator
Station Type Date Time Source
KCMH METAR 2020/03/31 21:51 UTC NOAA

KCMH 312151Z 06003KT 10SM OVC039 07/01 A2985 RMK AO2 RAB32E42 SLP110 P0000 T00720006


Station Type Date Time Source
KCMH Decoded METAR 2020/03/31 21:51 UTC NOAA

PORT COLUMBUS INTERNATIONAL AIRPORT, OH, United States (KCMH) 40-00N 82-53W 247M
Mar 31, 2020 - 05:51 PM EDT / 2020.03.31 2151 UTC
Wind: from the ENE (060 degrees) at 3 MPH (3 KT):0
Visibility: 10 mile(s):0
Sky conditions: overcast
Precipitation last hour: A trace
Temperature: 45.0 F (7.2 C)
Dew Point: 33.1 F (0.6 C)
Relative Humidity: 62%
Pressure (altimeter): 29.85 in. Hg (1010 hPa)
ob: KCMH 312151Z 06003KT 10SM OVC039 07/01 A2985 RMK AO2 RAB32E42 SLP110 P0000 T00720006
cycle: 22

Station Type Date Time Source
KCMH TAF 2020/03/31 18:45 UTC NOAA

TAF KCMH 311740Z 3118/0118 05006KT P6SM OVC030
FM312100 01008KT P6SM BKN025
TEMPO 3121/0101 SCT025 OVC040
FM010800 35008KT P6SM OVC020
FM011500 35009KT P6SM BKN030

Example: see airport list